createdAt,value
2023-01-19T00:02:26.264Z,35.15
2023-01-19T00:05:15.195Z,43.17
2023-01-19T00:08:14.990Z,22.10
2023-01-19T00:11:03.351Z,44.85
2023-01-19T00:13:52.113Z,34.58
2023-01-19T00:16:39.851Z,40.33
2023-01-19T00:19:28.633Z,34.13
2023-01-19T00:22:16.355Z,39.90
2023-01-19T00:25:04.549Z,30.30
2023-01-19T00:27:52.159Z,28.05
2023-01-19T00:30:40.498Z,36.50
2023-01-19T00:33:28.209Z,32.17
2023-01-19T00:36:16.872Z,44.55
2023-01-19T00:39:04.799Z,32.25
2023-01-19T00:42:10.735Z,49.03
2023-01-19T00:44:58.716Z,31.42
2023-01-19T00:47:47.857Z,33.05
2023-01-19T00:50:35.542Z,35.47
2023-01-19T00:53:23.253Z,33.53
2023-01-19T00:56:10.926Z,32.20
2023-01-19T00:58:58.743Z,43.15
2023-01-19T01:01:46.695Z,41.63
2023-01-19T01:04:36.669Z,38.03
2023-01-19T01:07:24.989Z,37.08
2023-01-19T01:10:17.010Z,36.22
2023-01-19T01:13:21.301Z,43.90
2023-01-19T01:16:14.523Z,39.40
2023-01-19T01:19:02.485Z,44.70
2023-01-19T01:21:51.410Z,40.05
2023-01-19T01:24:40.041Z,37.03
2023-01-19T01:27:29.285Z,24.08
2023-01-19T01:30:17.617Z,43.65
2023-01-19T01:33:05.319Z,56.47
2023-01-19T01:35:53.233Z,51.42
2023-01-19T01:38:41.828Z,39.67
2023-01-19T01:41:29.851Z,38.65
2023-01-19T01:44:53.587Z,43.88
2023-01-19T01:47:47.278Z,41.50
2023-01-19T01:50:38.721Z,21.08
2023-01-19T01:53:28.793Z,46.15
2023-01-19T01:56:21.942Z,41.53
2023-01-19T01:59:18.260Z,58.17
2023-01-19T02:02:30.256Z,47.38
2023-01-19T02:05:39.197Z,49.33
2023-01-19T02:08:57.770Z,38.63
2023-01-19T02:12:07.455Z,41.25
2023-01-19T02:15:02.838Z,37.42
2023-01-19T02:17:52.995Z,34.83
2023-01-19T02:20:45.691Z,35.80
2023-01-19T02:24:00.682Z,36.70
2023-01-19T02:26:51.383Z,32.80
2023-01-19T02:29:40.097Z,23.90
2023-01-19T02:32:28.349Z,29.17
2023-01-19T02:35:16.464Z,42.92
2023-01-19T02:38:05.259Z,30.67
2023-01-19T02:40:55.851Z,34.72
2023-01-19T02:43:45.171Z,42.88
2023-01-19T02:46:33.670Z,22.77
2023-01-19T02:49:21.414Z,28.10
2023-01-19T02:52:17.970Z,32.03
2023-01-19T02:55:20.043Z,37.25
2023-01-19T02:58:50.675Z,31.85
2023-01-19T03:02:01.558Z,55.35
2023-01-19T03:05:18.200Z,43.28
2023-01-19T03:08:38.134Z,35.20
2023-01-19T03:11:33.999Z,32.15
2023-01-19T03:14:25.435Z,14.63
2023-01-19T03:17:16.213Z,19.40
2023-01-19T03:20:06.400Z,41.22
2023-01-19T03:23:01.004Z,27.38
2023-01-19T03:25:51.486Z,46.25
2023-01-19T03:28:42.500Z,16.85
2023-01-19T03:31:33.473Z,30.20
2023-01-19T03:34:24.246Z,29.15
2023-01-19T03:37:14.604Z,40.30
2023-01-19T03:40:02.412Z,21.88
2023-01-19T03:42:50.755Z,21.67
2023-01-19T03:45:40.056Z,29.35
2023-01-19T03:48:27.872Z,42.95
2023-01-19T03:51:16.922Z,30.45
2023-01-19T03:54:05.850Z,30.30
2023-01-19T03:56:53.510Z,48.78
2023-01-19T03:59:41.208Z,25.52
2023-01-19T04:02:28.889Z,43.75
2023-01-19T04:05:16.500Z,41.95
2023-01-19T04:08:04.204Z,32.40
2023-01-19T04:10:51.827Z,30.85
2023-01-19T04:13:39.599Z,30.83
2023-01-19T04:16:27.432Z,20.80
2023-01-19T04:19:15.341Z,19.75
2023-01-19T04:22:03.091Z,36.63
2023-01-19T04:24:51.056Z,32.13
2023-01-19T04:27:38.723Z,39.17
2023-01-19T04:30:27.930Z,27.45
2023-01-19T04:33:15.687Z,17.00
2023-01-19T04:36:04.371Z,24.35
2023-01-19T04:38:52.121Z,31.20
2023-01-19T04:41:39.831Z,19.67
2023-01-19T04:44:28.686Z,28.63
2023-01-19T04:47:16.390Z,23.23
2023-01-19T04:50:06.691Z,16.02
2023-01-19T04:52:54.267Z,17.15
2023-01-19T04:55:42.210Z,23.08
2023-01-19T04:58:29.854Z,15.00
2023-01-19T05:01:17.689Z,21.35
2023-01-19T05:04:07.264Z,25.65
2023-01-19T05:06:54.879Z,18.75
2023-01-19T05:09:42.610Z,20.08
2023-01-19T05:12:30.264Z,25.42
2023-01-19T05:15:18.165Z,16.67
2023-01-19T05:18:05.888Z,24.40
2023-01-19T05:20:56.182Z,11.63
2023-01-19T05:23:43.920Z,16.58
2023-01-19T05:26:31.645Z,13.63
2023-01-19T05:29:19.312Z,16.65
2023-01-19T05:32:07.090Z,24.45
2023-01-19T05:34:54.865Z,17.20
2023-01-19T05:37:42.583Z,27.10
2023-01-19T05:40:30.285Z,17.88
2023-01-19T05:43:17.925Z,24.10
2023-01-19T05:46:05.852Z,37.22
2023-01-19T05:48:53.478Z,22.00
2023-01-19T05:51:45.762Z,31.60
2023-01-19T05:54:33.485Z,44.80
2023-01-19T05:57:23.005Z,35.70
2023-01-19T06:00:11.453Z,34.17
2023-01-19T06:03:04.047Z,22.23
2023-01-19T06:05:52.653Z,30.92
2023-01-19T06:08:45.331Z,30.42
2023-01-19T06:11:38.699Z,29.60
2023-01-19T06:14:28.744Z,31.17
2023-01-19T06:17:18.638Z,31.73
2023-01-19T06:20:07.338Z,33.47
2023-01-19T06:22:58.016Z,40.58
2023-01-19T06:25:45.638Z,19.75
2023-01-19T06:28:33.316Z,69.70
2023-01-19T06:31:21.348Z,66.68
2023-01-19T06:34:10.371Z,32.83
2023-01-19T06:36:58.766Z,32.47
2023-01-19T06:39:46.478Z,26.45
2023-01-19T06:42:39.257Z,58.92
2023-01-19T06:45:28.006Z,37.75
2023-01-19T06:48:16.006Z,35.58
2023-01-19T06:51:03.711Z,35.75
2023-01-19T06:53:51.497Z,44.80
2023-01-19T06:56:39.188Z,31.65
2023-01-19T06:59:26.958Z,25.08
2023-01-19T07:02:26.542Z,81.30
2023-01-19T07:05:15.771Z,71.95
2023-01-19T07:08:04.253Z,33.30
2023-01-19T07:11:25.006Z,31.02
2023-01-19T07:14:01.063Z,43.35
2023-01-19T07:16:48.749Z,31.33
2023-01-19T07:19:36.923Z,25.17
2023-01-19T07:22:26.743Z,31.77
2023-01-19T07:25:14.875Z,27.77
2023-01-19T07:28:02.865Z,32.97
2023-01-19T07:30:55.336Z,17.42
2023-01-19T07:33:43.184Z,19.88
2023-01-19T07:36:30.852Z,16.92
2023-01-19T07:39:18.620Z,20.08
2023-01-19T07:42:07.461Z,18.35
2023-01-19T07:44:57.199Z,32.92
2023-01-19T07:47:45.682Z,26.05
2023-01-19T07:50:34.789Z,25.63
2023-01-19T07:53:22.760Z,28.42
2023-01-19T07:56:11.022Z,37.78
2023-01-19T07:58:58.731Z,20.92
2023-01-19T08:01:46.592Z,40.05
2023-01-19T08:04:36.459Z,23.48
2023-01-19T08:07:24.310Z,34.53
2023-01-19T08:10:13.693Z,36.20
2023-01-19T08:13:01.646Z,28.38
2023-01-19T08:15:51.734Z,24.05
2023-01-19T08:18:39.950Z,26.17
2023-01-19T08:21:30.295Z,30.40
2023-01-19T08:24:21.571Z,27.30
2023-01-19T08:27:11.245Z,35.28
2023-01-19T08:29:59.386Z,32.65
2023-01-19T08:32:47.023Z,23.88
2023-01-19T08:35:39.795Z,34.00
2023-01-19T08:38:27.466Z,17.88
2023-01-19T08:41:16.723Z,21.70
2023-01-19T08:44:04.542Z,22.20
2023-01-19T08:46:52.052Z,26.52
2023-01-19T08:49:42.253Z,22.75
2023-01-19T08:52:32.907Z,22.73
2023-01-19T08:55:21.013Z,28.90
2023-01-19T08:58:11.996Z,24.52
2023-01-19T09:01:02.596Z,23.10
2023-01-19T09:03:52.201Z,30.17
2023-01-19T09:06:39.896Z,43.13
2023-01-19T09:09:30.860Z,32.80
2023-01-19T09:12:18.741Z,26.50
2023-01-19T09:15:10.958Z,24.77
2023-01-19T09:17:59.002Z,27.83
2023-01-19T09:20:49.153Z,40.88
2023-01-19T09:23:36.834Z,26.67
2023-01-19T09:26:24.695Z,16.42
2023-01-19T09:29:12.307Z,16.80
2023-01-19T09:32:00.127Z,29.17
2023-01-19T09:34:48.225Z,17.92
2023-01-19T09:37:38.688Z,39.78
2023-01-19T09:40:26.716Z,49.17
2023-01-19T09:43:33.051Z,35.85
2023-01-19T09:46:24.799Z,19.40
2023-01-19T09:49:17.182Z,16.90
2023-01-19T09:52:04.792Z,25.02
2023-01-19T09:54:57.902Z,18.52
2023-01-19T09:57:45.693Z,25.30
2023-01-19T10:00:33.425Z,20.55
2023-01-19T10:03:23.049Z,23.00
2023-01-19T10:06:14.209Z,21.90
2023-01-19T10:09:18.958Z,18.60
2023-01-19T10:12:27.436Z,14.00
2023-01-19T10:15:26.729Z,25.30
2023-01-19T10:18:35.208Z,30.88
2023-01-19T10:21:25.886Z,32.92
2023-01-19T10:24:28.832Z,44.30
2023-01-19T10:27:19.266Z,34.55
2023-01-19T10:30:08.838Z,31.17
2023-01-19T10:32:56.668Z,21.13
2023-01-19T10:35:45.297Z,22.50
2023-01-19T10:38:34.961Z,29.73
2023-01-19T10:41:31.943Z,35.30
2023-01-19T10:44:35.422Z,32.05
2023-01-19T10:47:34.871Z,35.00
2023-01-19T10:50:32.050Z,28.75
2023-01-19T10:53:22.919Z,26.08
2023-01-19T10:56:38.165Z,26.55
2023-01-19T10:59:48.920Z,29.20
2023-01-19T11:02:36.751Z,20.67
2023-01-19T11:05:27.789Z,42.95
2023-01-19T11:08:30.938Z,37.33
2023-01-19T11:11:23.801Z,26.33
2023-01-19T11:14:17.760Z,34.05
2023-01-19T11:17:05.514Z,56.22
2023-01-19T11:19:56.765Z,20.52
2023-01-19T11:22:44.618Z,24.25
2023-01-19T11:25:34.733Z,28.60
2023-01-19T11:28:44.191Z,33.90
2023-01-19T11:31:35.754Z,27.65
2023-01-19T11:34:25.455Z,25.52
2023-01-19T11:37:19.518Z,29.48
2023-01-19T11:40:19.322Z,25.30
2023-01-19T11:43:20.102Z,21.25
2023-01-19T11:46:15.664Z,9.27
2023-01-19T11:49:15.724Z,21.23
2023-01-19T11:52:22.733Z,26.10
2023-01-19T11:55:25.676Z,20.15
2023-01-19T11:58:16.743Z,15.77
2023-01-19T12:01:06.737Z,24.93
2023-01-19T12:04:18.088Z,25.08
2023-01-19T12:07:10.869Z,24.03
2023-01-19T12:10:20.076Z,26.33
2023-01-19T12:13:18.932Z,17.35
2023-01-19T12:16:09.304Z,20.45
2023-01-19T12:19:16.150Z,16.83
2023-01-19T12:22:05.460Z,18.45
2023-01-19T12:25:03.292Z,11.15
2023-01-19T12:27:54.437Z,28.83
2023-01-19T12:30:55.388Z,33.25
2023-01-19T12:33:43.104Z,21.45
2023-01-19T12:36:30.831Z,20.95
2023-01-19T12:39:23.804Z,33.08
2023-01-19T12:42:15.405Z,26.40
2023-01-19T12:45:08.157Z,19.67
2023-01-19T12:47:56.887Z,27.98
2023-01-19T12:50:46.913Z,35.65
2023-01-19T12:53:34.659Z,26.50
2023-01-19T12:56:31.165Z,25.80
2023-01-19T12:59:25.649Z,26.75
2023-01-19T13:02:28.803Z,28.75
2023-01-19T13:05:50.976Z,24.95
2023-01-19T13:08:57.569Z,15.70
2023-01-19T13:12:22.684Z,28.75
2023-01-19T13:15:36.124Z,19.88
2023-01-19T13:18:31.062Z,19.77
2023-01-19T13:21:48.758Z,24.55
2023-01-19T13:25:07.497Z,15.15
2023-01-19T13:27:55.641Z,29.15
2023-01-19T13:30:59.592Z,27.98
2023-01-19T13:33:53.723Z,25.63
2023-01-19T13:36:45.771Z,16.85
2023-01-19T13:39:41.146Z,25.27
2023-01-19T13:42:42.172Z,17.27
2023-01-19T13:45:38.341Z,25.15
2023-01-19T13:48:26.230Z,23.60
2023-01-19T13:51:19.387Z,24.88
2023-01-19T13:54:17.885Z,22.00
2023-01-19T13:57:05.714Z,23.45
2023-01-19T14:00:06.849Z,22.52
2023-01-19T14:03:18.752Z,23.85
2023-01-19T14:06:06.676Z,18.17
2023-01-19T14:09:19.571Z,24.00
2023-01-19T14:12:15.860Z,19.17
2023-01-19T14:15:05.485Z,18.58
2023-01-19T14:18:14.505Z,22.10
2023-01-19T14:21:10.010Z,25.35
2023-01-19T14:24:19.962Z,32.47
2023-01-19T14:27:18.385Z,28.05
2023-01-19T14:30:25.356Z,30.85
2023-01-19T14:33:51.866Z,29.85
2023-01-19T14:36:42.241Z,28.95
2023-01-19T14:39:35.642Z,29.08
2023-01-19T14:42:31.125Z,34.30
2023-01-19T14:45:20.652Z,37.03
2023-01-19T14:48:24.707Z,23.48
2023-01-19T14:51:18.619Z,30.10
2023-01-19T14:54:06.897Z,24.15
2023-01-19T14:56:54.593Z,27.17
2023-01-19T14:59:42.817Z,22.08
2023-01-19T15:02:30.649Z,22.88
2023-01-19T15:08:42.583Z,33.15
2023-01-19T15:11:35.073Z,12.88
2023-01-19T15:14:23.043Z,25.60
2023-01-19T15:17:27.684Z,22.75
2023-01-19T15:20:21.288Z,23.13
2023-01-19T15:23:11.551Z,14.15
2023-01-19T15:26:04.687Z,17.67
2023-01-19T15:28:53.053Z,17.92
2023-01-19T15:31:41.719Z,10.50
2023-01-19T15:34:32.083Z,22.17
2023-01-19T15:37:19.852Z,33.95
2023-01-19T15:40:08.198Z,24.17
2023-01-19T15:42:55.930Z,30.42
2023-01-19T15:45:44.919Z,14.15
2023-01-19T15:48:32.872Z,20.25
2023-01-19T15:51:23.114Z,27.80
2023-01-19T15:54:17.094Z,35.42
2023-01-19T15:57:05.972Z,45.35
2023-01-19T15:59:53.656Z,79.50
2023-01-19T16:02:41.529Z,37.40
2023-01-19T16:05:41.993Z,39.58
2023-01-19T16:08:30.215Z,26.70
2023-01-19T16:11:19.105Z,18.70
2023-01-19T16:14:06.909Z,15.02
2023-01-19T16:16:54.599Z,34.83
2023-01-19T16:19:42.362Z,9.45
2023-01-19T16:22:30.043Z,12.90
2023-01-19T16:25:17.765Z,5.63
2023-01-19T16:28:05.557Z,12.63
2023-01-19T16:30:54.118Z,9.75
2023-01-19T16:33:41.970Z,10.68
2023-01-19T16:36:32.604Z,14.15
2023-01-19T16:39:23.278Z,10.38
2023-01-19T16:42:11.039Z,11.23
2023-01-19T16:44:59.023Z,16.00
2023-01-19T16:48:06.206Z,10.57
2023-01-19T16:51:06.269Z,10.55
2023-01-19T16:53:54.158Z,4.85
2023-01-19T16:56:44.954Z,5.72
2023-01-19T16:59:35.981Z,10.15
2023-01-19T17:02:23.674Z,16.40
2023-01-19T17:05:11.498Z,7.03
2023-01-19T17:07:59.413Z,4.25
2023-01-19T17:10:48.280Z,6.30
2023-01-19T17:13:36.184Z,6.22
2023-01-19T17:16:25.055Z,3.00
2023-01-19T17:19:18.769Z,3.70
2023-01-19T17:22:09.717Z,2.42
2023-01-19T17:24:57.394Z,6.80
2023-01-19T17:27:48.143Z,5.65
2023-01-19T17:30:35.900Z,2.60
2023-01-19T17:33:25.192Z,3.72
2023-01-19T17:36:22.650Z,9.43
2023-01-19T17:39:15.079Z,4.65
2023-01-19T17:42:02.900Z,3.17
2023-01-19T17:44:50.667Z,3.28
2023-01-19T17:47:38.937Z,3.38
2023-01-19T17:50:29.855Z,4.97
2023-01-19T17:53:17.654Z,4.55
2023-01-19T17:56:09.514Z,7.00
2023-01-19T17:58:58.478Z,6.65
2023-01-19T18:01:46.803Z,5.68
2023-01-19T18:04:38.144Z,16.85
2023-01-19T18:07:29.743Z,9.43
2023-01-19T18:10:20.775Z,11.32
2023-01-19T18:13:08.479Z,8.15
2023-01-19T18:16:03.637Z,19.38
2023-01-19T18:18:54.034Z,14.82
2023-01-19T18:21:41.728Z,22.98
2023-01-19T18:24:29.595Z,11.02
2023-01-19T18:27:17.804Z,16.48
2023-01-19T18:30:06.072Z,22.58
2023-01-19T18:32:53.893Z,15.60
2023-01-19T18:35:41.621Z,15.00
2023-01-19T18:38:29.511Z,21.10
2023-01-19T18:41:19.324Z,23.67
2023-01-19T18:44:07.058Z,18.50
2023-01-19T18:46:56.954Z,19.70
2023-01-19T18:49:45.185Z,29.23
2023-01-19T18:52:42.969Z,14.10
2023-01-19T18:55:33.718Z,31.17
2023-01-19T18:58:21.864Z,21.17
2023-01-19T19:01:32.717Z,25.90
2023-01-19T19:04:20.827Z,26.35
2023-01-19T19:07:11.401Z,15.95
2023-01-19T19:09:59.125Z,29.63
2023-01-19T19:12:48.437Z,23.30
2023-01-19T19:15:36.170Z,19.95
2023-01-19T19:18:24.156Z,22.77
2023-01-19T19:21:13.043Z,14.30
2023-01-19T19:24:00.904Z,25.48
2023-01-19T19:26:51.527Z,25.08
2023-01-19T19:29:39.312Z,37.05
2023-01-19T19:32:27.084Z,32.85
2023-01-19T19:35:18.815Z,49.65
2023-01-19T19:38:06.528Z,48.15
2023-01-19T19:40:57.520Z,48.85
2023-01-19T19:43:45.229Z,62.28
2023-01-19T19:46:32.915Z,48.38
2023-01-19T19:49:21.682Z,36.47
2023-01-19T19:52:09.214Z,58.25
2023-01-19T19:54:56.925Z,46.50
2023-01-19T19:57:47.940Z,35.53
2023-01-19T20:00:35.728Z,52.33
2023-01-19T20:03:27.138Z,61.30
2023-01-19T20:06:21.586Z,67.50
2023-01-19T20:09:14.381Z,52.65
2023-01-19T20:12:02.057Z,53.95
2023-01-19T20:14:50.897Z,46.83
2023-01-19T20:17:38.585Z,47.65
2023-01-19T20:20:26.639Z,140.55
2023-01-19T20:23:17.063Z,81.82
2023-01-19T20:26:07.436Z,74.38
2023-01-19T20:29:00.029Z,52.33
2023-01-19T20:31:51.128Z,52.53
2023-01-19T20:34:40.278Z,40.85
2023-01-19T20:37:28.214Z,34.20
2023-01-19T20:40:16.100Z,27.50
2023-01-19T20:43:03.885Z,25.65
2023-01-19T20:45:52.920Z,21.02
2023-01-19T20:48:40.825Z,19.58
2023-01-19T20:51:28.610Z,28.73
2023-01-19T20:54:18.413Z,18.95
2023-01-19T20:57:06.431Z,25.30
2023-01-19T20:59:54.351Z,19.65
2023-01-19T21:02:42.101Z,23.05
2023-01-19T21:05:29.818Z,18.17
2023-01-19T21:08:18.464Z,12.63
2023-01-19T21:11:06.398Z,15.75
2023-01-19T21:13:56.642Z,8.85
2023-01-19T21:16:44.504Z,4.30
2023-01-19T21:19:32.178Z,10.63
2023-01-19T21:22:22.051Z,8.57
2023-01-19T21:25:18.023Z,12.73
2023-01-19T21:28:17.074Z,7.65
2023-01-19T21:31:14.004Z,1.77
2023-01-19T21:34:01.739Z,10.55
2023-01-19T21:36:51.592Z,3.45
2023-01-19T21:39:39.322Z,6.05
2023-01-19T21:42:27.081Z,5.43
2023-01-19T21:45:15.215Z,19.30
2023-01-19T21:48:03.086Z,16.33
2023-01-19T21:50:57.722Z,11.65
2023-01-19T21:53:45.543Z,9.32
2023-01-19T21:56:34.450Z,8.50
2023-01-19T21:59:22.264Z,10.88
2023-01-19T22:02:12.790Z,6.97
2023-01-19T22:58:48.384Z,7.70
2023-01-19T23:01:41.136Z,11.15
2023-01-19T23:04:28.850Z,11.35
2023-01-19T23:07:16.602Z,7.43
2023-01-19T23:10:04.406Z,7.78
2023-01-19T23:12:52.199Z,8.05
2023-01-19T23:15:39.860Z,4.75
2023-01-19T23:18:28.258Z,7.38
2023-01-19T23:21:19.161Z,14.13
2023-01-19T23:24:07.081Z,6.53
2023-01-19T23:26:54.768Z,3.30
2023-01-19T23:29:42.471Z,2.85
2023-01-19T23:32:30.198Z,7.63
2023-01-19T23:35:17.861Z,4.38
2023-01-19T23:38:05.516Z,7.78
2023-01-19T23:40:56.695Z,9.93
2023-01-19T23:43:44.392Z,8.00
2023-01-19T23:46:32.243Z,7.78
2023-01-19T23:49:20.201Z,4.45
2023-01-19T23:52:07.928Z,9.05
2023-01-19T23:54:55.521Z,14.88
2023-01-19T23:57:45.497Z,8.02
